Etusivu
METAR-TAF:

METAR-TAF

Lentoasemat :

Lake Charles, Louisiana, Yhdysvallat

Leveyspiiri: 30-13N, Pituuspiiri: 093-09W, korkeus merenpinnasta: 4 m

Tämänhetkinen sää

Tämä raportti tehtiin 40 minuuttia sitten, kello 15.45 UTC
tyyntä
Lämpötila 21°C
Kosteus 94%
Ilmanpaine 1017 hPa
Näkyvyys: 9.7 km
Hajonneita pilviä 400 ft:n korkeudessa
Hajonneita pilviä 800 ft:n korkeudessa
Pilvistä 2200 ft:n korkeudessa
utua

METAR: KCWF 011545Z 00000KT 6SM BR BKN004 BKN008 OVC022 21/20 A3002

Aika: 10:25 (16:25 UTC)


TAF: puuttuu

Säähavainnot ja -ennusteet yli 4000 lentoasemalta (METAR- ja TAF-raportit).

Käytössä olevat sääasemat on merkitty karttaan keltaisilla ja punaisilla pisteillä.

Aseta hiiri pisteen päälle nähdäksesi sääaseman nimen.

Klikkaa sitten nähdäksesi säähavainnot ja -ennusteet.

Kartan vaihtaminen: klikkaa mustalla rastilla varustettuja vihreitä pisteitä, niin voit zoomata sisään; viivalla varustettua vihreää pistettä, niin voit zoomata ulos tai vihreitä nuolia, niin pääset viereisille kartoille.


METAR-TAF: